createdAt,value
2018-05-02T00:48:04.129Z,12.34
2018-05-02T00:50:38.175Z,12.40
2018-05-02T00:53:11.434Z,12.40
2018-05-02T00:55:44.707Z,12.34
2018-05-02T00:58:17.944Z,12.26
2018-05-02T02:31:52.672Z,12.25
2018-05-02T02:34:26.687Z,12.29
2018-05-02T02:37:00.731Z,12.26
2018-05-02T02:39:33.991Z,12.26
2018-05-02T02:42:08.036Z,12.27
2018-05-02T02:44:41.301Z,12.24
2018-05-02T03:45:56.474Z,11.72
2018-05-02T03:48:29.721Z,11.72
2018-05-02T03:51:02.999Z,11.75
2018-05-02T03:53:36.251Z,11.78
2018-05-02T03:56:09.524Z,11.81
2018-05-02T03:58:42.777Z,11.81
2018-05-02T04:30:57.445Z,11.77
2018-05-02T04:33:31.498Z,11.76
2018-05-02T04:36:04.768Z,11.75
2018-05-02T04:38:38.811Z,11.74
2018-05-02T04:41:12.925Z,11.78
2018-05-02T04:43:46.212Z,11.83
2018-05-02T04:46:19.462Z,11.89
2018-05-02T04:48:52.781Z,11.94
2018-05-02T04:51:26.038Z,11.97
2018-05-02T04:53:59.310Z,11.97
2018-05-02T04:56:32.578Z,12.02
2018-05-02T04:59:05.852Z,12.03
2018-05-02T05:01:39.116Z,12.05
2018-05-02T05:04:12.404Z,12.03
2018-05-02T05:06:45.664Z,12.06
2018-05-02T05:09:18.959Z,12.08
2018-05-02T05:11:52.211Z,12.10
2018-05-02T05:14:25.533Z,12.12
2018-05-02T05:16:58.758Z,12.21
2018-05-02T05:19:32.442Z,12.27
2018-05-02T05:22:05.699Z,12.31
2018-05-02T05:24:40.048Z,12.34
2018-05-02T05:27:13.300Z,12.22
2018-05-02T05:29:46.575Z,12.16
2018-05-02T05:32:19.836Z,12.08
2018-05-02T05:34:53.132Z,12.09
2018-05-02T05:37:26.383Z,12.09
2018-05-02T05:40:00.545Z,12.01
2018-05-02T05:42:33.796Z,11.95
2018-05-02T05:45:07.080Z,11.96
2018-05-02T05:47:40.331Z,11.89
2018-05-02T05:50:13.604Z,11.87
2018-05-02T05:52:46.908Z,11.93
2018-05-02T05:55:20.181Z,12.00
2018-05-02T05:57:54.199Z,12.06
2018-05-02T06:00:27.477Z,12.09
2018-05-02T06:03:01.513Z,12.16
2018-05-02T06:05:34.780Z,12.22
2018-05-02T06:08:08.803Z,12.32
2018-05-02T06:10:42.080Z,12.30
2018-05-02T06:13:16.103Z,12.32
2018-05-02T06:15:50.224Z,12.26
2018-05-02T06:18:24.250Z,12.23
2018-05-02T06:20:57.535Z,12.23
2018-05-02T06:23:31.570Z,12.23
2018-05-02T06:26:04.897Z,12.19
2018-05-02T06:28:38.089Z,12.21
2018-05-02T07:00:54.493Z,13.40
2018-05-02T07:03:27.651Z,13.42
2018-05-02T07:06:01.702Z,13.42
2018-05-02T07:08:34.963Z,13.62
2018-05-02T07:11:08.999Z,13.74
2018-05-02T07:13:42.256Z,13.79
2018-05-02T08:01:45.931Z,14.40
2018-05-02T08:04:19.184Z,14.33
2018-05-02T08:06:53.236Z,14.35
2018-05-02T08:09:26.491Z,14.44
2018-05-02T08:12:00.531Z,14.44
2018-05-02T08:14:33.792Z,14.46
2018-05-02T09:02:37.104Z,15.87
2018-05-02T09:05:10.368Z,15.84
2018-05-02T09:07:43.646Z,15.82
2018-05-02T09:10:16.899Z,15.74
2018-05-02T09:12:50.178Z,15.65
2018-05-02T10:00:54.835Z,17.12
2018-05-02T10:03:28.098Z,17.18
2018-05-02T10:06:01.352Z,17.29
2018-05-02T10:08:35.388Z,17.45
2018-05-02T10:11:08.647Z,17.55
2018-05-02T10:13:42.681Z,17.60
2018-05-02T11:01:46.241Z,17.51
2018-05-02T11:04:19.499Z,17.54
2018-05-02T11:06:52.780Z,17.57
2018-05-02T11:09:26.036Z,17.66
2018-05-02T11:11:59.323Z,17.70
2018-05-02T11:14:32.576Z,17.67
2018-05-02T12:02:37.194Z,18.68
2018-05-02T12:05:10.396Z,18.71
2018-05-02T12:07:43.652Z,18.80
2018-05-02T12:10:16.920Z,18.95
2018-05-02T12:12:50.182Z,19.06
2018-05-02T13:01:00.112Z,19.60
2018-05-02T13:03:33.393Z,19.55
2018-05-02T13:06:06.659Z,19.60
2018-05-02T13:08:39.911Z,19.73
2018-05-02T13:11:13.179Z,19.77
2018-05-02T13:13:46.440Z,19.82
2018-05-02T14:01:50.675Z,19.01
2018-05-02T14:04:23.948Z,18.82
2018-05-02T14:06:57.220Z,18.91
2018-05-02T14:09:30.477Z,18.89
2018-05-02T14:12:03.747Z,18.79
2018-05-02T14:14:37.003Z,18.76
2018-05-02T14:46:28.284Z,18.74
2018-05-02T14:49:01.555Z,18.74
2018-05-02T14:51:34.815Z,18.55
2018-05-02T14:54:08.088Z,18.60
2018-05-02T14:56:41.348Z,18.45
2018-05-02T14:59:15.395Z,18.42
2018-05-02T15:31:05.367Z,18.78
2018-05-02T15:33:38.647Z,18.79
2018-05-02T15:36:11.903Z,18.84
2018-05-02T15:38:45.185Z,18.86
2018-05-02T15:41:18.442Z,18.82
2018-05-02T15:43:51.726Z,18.89
2018-05-02T15:46:24.996Z,18.90
2018-05-02T15:49:01.022Z,18.74
2018-05-02T15:51:35.077Z,18.85
2018-05-02T15:54:08.379Z,18.87
2018-05-02T15:56:41.688Z,18.86
2018-05-02T15:59:14.961Z,18.87
2018-05-02T16:01:49.001Z,18.86
2018-05-02T16:04:22.247Z,18.88
2018-05-02T16:06:55.536Z,18.79
2018-05-02T16:09:28.800Z,18.80
2018-05-02T16:12:02.082Z,18.92
2018-05-02T16:14:35.335Z,18.86
2018-05-02T16:17:09.421Z,18.90
2018-05-02T16:19:42.688Z,18.77
2018-05-02T16:22:15.963Z,18.78
2018-05-02T16:24:49.230Z,18.80
2018-05-02T16:27:23.316Z,18.95
2018-05-02T16:29:56.524Z,18.81
2018-05-02T16:32:30.561Z,18.87
2018-05-02T16:35:03.821Z,18.98
2018-05-02T16:37:37.112Z,18.85
2018-05-02T16:40:10.374Z,18.86
2018-05-02T16:42:43.648Z,18.83
2018-05-02T16:45:16.908Z,18.97
2018-05-02T16:47:50.206Z,19.01
2018-05-02T16:50:23.456Z,18.88
2018-05-02T16:52:56.729Z,18.86
2018-05-02T16:55:29.988Z,18.87
2018-05-02T16:58:04.029Z,19.00
2018-05-02T17:00:37.385Z,18.93
2018-05-02T17:03:11.615Z,19.28
2018-05-02T17:05:44.896Z,19.58
2018-05-02T17:08:18.278Z,19.97
2018-05-02T17:10:51.547Z,20.23
2018-05-02T17:13:24.821Z,20.32
2018-05-02T17:15:58.088Z,20.25
2018-05-02T17:18:31.364Z,20.23
2018-05-02T17:21:04.660Z,20.09
2018-05-02T17:23:37.908Z,19.97
2018-05-02T17:26:11.204Z,19.92
2018-05-02T17:28:44.457Z,19.68
2018-05-02T17:31:18.497Z,19.67
2018-05-02T17:33:52.644Z,19.48
2018-05-02T17:36:25.932Z,19.48
2018-05-02T17:38:59.194Z,19.38
2018-05-02T17:41:32.452Z,19.29
2018-05-02T17:44:06.489Z,19.28
2018-05-02T17:46:39.768Z,19.25
2018-05-02T17:49:13.787Z,19.09
2018-05-02T17:51:47.067Z,19.05
2018-05-02T17:54:21.092Z,19.06
2018-05-02T17:56:54.358Z,18.99
2018-05-02T17:59:27.619Z,18.93
2018-05-02T18:02:00.900Z,18.85
2018-05-02T18:04:34.208Z,18.81
2018-05-02T18:07:07.497Z,18.80
2018-05-02T18:09:40.749Z,18.75
2018-05-02T18:12:14.790Z,18.70
2018-05-02T18:14:48.048Z,18.64
2018-05-02T18:17:21.325Z,18.54
2018-05-02T18:19:54.589Z,18.49
2018-05-02T18:22:27.860Z,18.46
2018-05-02T18:25:01.122Z,18.47
2018-05-02T18:27:35.166Z,18.43
2018-05-02T18:30:08.443Z,18.37
2018-05-02T18:32:41.751Z,18.28
2018-05-02T18:35:15.006Z,18.23
2018-05-02T18:37:59.089Z,18.21
2018-05-02T18:40:32.347Z,18.15
2018-05-02T18:43:05.619Z,18.14
2018-05-02T18:45:38.895Z,18.12
2018-05-02T18:48:12.172Z,18.09
2018-05-02T18:50:45.430Z,17.98
2018-05-02T18:53:19.553Z,17.78
2018-05-02T18:55:52.750Z,17.76
2018-05-02T18:58:26.056Z,17.72
2018-05-02T19:01:00.278Z,17.64
2018-05-02T19:03:33.528Z,17.61
2018-05-02T19:06:06.808Z,17.61
2018-05-02T19:08:40.110Z,17.64
2018-05-02T19:11:13.394Z,17.62
2018-05-02T19:13:52.298Z,17.61
2018-05-02T19:16:25.576Z,17.52
2018-05-02T19:19:04.373Z,17.51
2018-05-02T19:21:38.425Z,17.43
2018-05-02T19:24:11.673Z,17.40
2018-05-02T19:26:44.949Z,17.37
2018-05-02T19:29:18.208Z,17.31
2018-05-02T19:31:57.031Z,17.24
2018-05-02T19:34:30.288Z,17.17
2018-05-02T19:37:04.384Z,17.14
2018-05-02T19:42:41.158Z,17.05
2018-05-02T19:45:14.394Z,17.04
2018-05-02T19:47:48.427Z,17.04
2018-05-02T19:50:21.729Z,16.99
2018-05-02T19:52:54.997Z,16.96
2018-05-02T19:55:28.303Z,16.95
2018-05-02T19:58:02.546Z,16.91
2018-05-02T20:00:41.271Z,16.90
2018-05-02T20:03:14.544Z,16.89
2018-05-02T20:05:47.820Z,16.84
2018-05-02T20:08:27.339Z,16.87
2018-05-02T20:11:06.200Z,16.90
2018-05-02T20:13:45.095Z,16.90
2018-05-02T20:16:18.345Z,16.93
2018-05-02T20:18:51.611Z,16.95
2018-05-02T20:21:24.920Z,16.93
2018-05-02T20:23:58.172Z,16.91
2018-05-02T20:26:32.213Z,16.90
2018-05-02T20:29:05.478Z,16.86
2018-05-02T20:31:39.551Z,16.84
2018-05-02T20:34:12.966Z,16.79
2018-05-02T20:36:46.337Z,16.69
2018-05-02T20:39:19.608Z,16.57
2018-05-02T20:41:52.931Z,16.55
2018-05-02T20:44:26.167Z,16.55
2018-05-02T20:47:00.212Z,16.51
2018-05-02T20:49:33.464Z,16.50
2018-05-02T20:52:07.524Z,16.43
2018-05-02T20:54:40.788Z,16.41
2018-05-02T20:57:15.002Z,16.31
2018-05-02T20:59:49.027Z,16.23
2018-05-02T21:02:22.312Z,16.20
2018-05-02T21:04:55.575Z,16.13
2018-05-02T21:07:28.867Z,16.08
2018-05-02T21:10:02.126Z,16.01
2018-05-02T21:12:35.406Z,15.99
2018-05-02T21:15:08.659Z,15.89
2018-05-02T21:17:41.957Z,15.80
2018-05-02T21:20:15.212Z,15.73
2018-05-02T21:22:48.504Z,15.73
2018-05-02T21:25:22.581Z,15.63
2018-05-02T21:27:55.863Z,15.60
2018-05-02T21:30:29.890Z,15.54
2018-05-02T21:33:03.163Z,15.43
2018-05-02T21:35:37.202Z,15.41
2018-05-02T21:38:10.476Z,15.39
2018-05-02T21:40:44.584Z,15.42
2018-05-02T21:43:17.782Z,15.44
2018-05-02T21:45:51.806Z,15.46
2018-05-02T21:48:25.102Z,15.49
2018-05-02T21:50:58.360Z,15.54
2018-05-02T21:53:31.629Z,15.50
2018-05-02T21:56:04.891Z,15.48
2018-05-02T21:58:38.172Z,15.48
2018-05-02T22:01:11.432Z,15.45
2018-05-02T22:03:44.708Z,15.38
2018-05-02T22:06:17.963Z,15.34
2018-05-02T22:08:51.243Z,15.32
2018-05-02T22:11:24.508Z,15.26
2018-05-02T22:13:57.776Z,15.18
2018-05-02T22:16:31.113Z,15.13
2018-05-02T22:19:04.387Z,15.07
2018-05-02T22:21:37.648Z,14.98
2018-05-02T22:24:10.921Z,15.05
2018-05-02T22:26:44.175Z,15.04
2018-05-02T22:29:17.475Z,15.03
2018-05-02T22:31:50.736Z,15.04
2018-05-02T22:34:24.010Z,15.03
2018-05-02T22:36:57.267Z,15.04
2018-05-02T22:39:30.552Z,15.05
2018-05-02T22:42:03.812Z,15.09
2018-05-02T22:44:37.853Z,15.08
2018-05-02T22:47:11.118Z,15.12
2018-05-02T22:49:44.396Z,15.16
2018-05-02T22:52:17.643Z,15.16
2018-05-02T22:54:51.683Z,15.19
2018-05-02T22:57:24.939Z,15.22
2018-05-02T22:59:58.212Z,15.21
2018-05-02T23:02:31.488Z,15.21
2018-05-02T23:05:04.739Z,15.17
2018-05-02T23:07:37.992Z,15.13
2018-05-02T23:10:11.269Z,15.09
2018-05-02T23:12:44.638Z,15.08
